createdAt,value
2022-08-14T00:00:01.975Z,5.75
2022-08-14T00:02:36.686Z,5.87
2022-08-14T00:05:12.846Z,5.85
2022-08-14T00:07:46.778Z,5.83
2022-08-14T00:10:52.900Z,5.78
2022-08-14T00:12:58.652Z,5.53
2022-08-14T00:15:43.985Z,5.95
2022-08-14T00:18:14.651Z,6.17
2022-08-14T00:20:46.976Z,6.47
2022-08-14T00:23:20.670Z,6.10
2022-08-14T00:26:05.635Z,6.40
2022-08-14T00:28:32.761Z,7.28
2022-08-14T00:31:09.769Z,6.37
2022-08-14T00:33:52.778Z,6.08
2022-08-14T00:36:36.358Z,5.58
2022-08-14T00:38:52.379Z,6.03
2022-08-14T00:41:26.091Z,5.87
2022-08-14T00:44:01.371Z,5.40
2022-08-14T00:46:34.359Z,5.83
2022-08-14T00:51:44.721Z,5.62
2022-08-14T00:54:21.967Z,5.60
2022-08-14T00:56:55.735Z,5.92
2022-08-14T00:59:30.992Z,5.95
2022-08-14T01:02:06.065Z,5.92
2022-08-14T01:04:54.143Z,6.60
2022-08-14T01:07:20.448Z,6.25
2022-08-14T01:09:58.888Z,6.20
2022-08-14T01:12:33.952Z,6.12
2022-08-14T01:15:09.791Z,6.15
2022-08-14T01:18:01.552Z,6.05
2022-08-14T01:20:52.711Z,7.97
2022-08-14T01:23:25.564Z,6.05
2022-08-14T01:26:00.908Z,6.92
2022-08-14T01:28:56.429Z,6.70
2022-08-14T01:31:16.642Z,6.30
2022-08-14T01:33:59.702Z,6.65
2022-08-14T01:36:31.989Z,6.90
2022-08-14T01:39:14.190Z,7.10
2022-08-14T01:41:51.436Z,7.10
2022-08-14T01:44:32.528Z,7.28
2022-08-14T01:47:05.943Z,7.12
2022-08-14T01:49:46.285Z,6.72
2022-08-14T01:52:34.681Z,8.50
2022-08-14T01:54:57.947Z,7.25
2022-08-14T01:57:24.189Z,7.37
2022-08-14T01:59:58.863Z,7.45
2022-08-14T02:02:36.861Z,7.58
2022-08-14T02:05:06.926Z,7.50
2022-08-14T02:07:53.640Z,7.78
2022-08-14T02:10:18.014Z,7.17
2022-08-14T02:12:56.893Z,7.03
2022-08-14T02:15:26.444Z,6.10
2022-08-14T02:18:00.998Z,6.35
2022-08-14T02:20:35.856Z,7.00
2022-08-14T02:23:09.162Z,6.65
2022-08-14T02:25:42.130Z,5.73
2022-08-14T02:28:25.369Z,6.15
2022-08-14T02:30:52.707Z,5.40
2022-08-14T02:33:24.520Z,5.72
2022-08-14T02:36:45.972Z,5.92
2022-08-14T02:38:34.216Z,5.78
2022-08-14T02:41:11.039Z,6.15
2022-08-14T02:43:46.561Z,5.87
2022-08-14T02:46:20.514Z,6.55
2022-08-14T02:49:03.048Z,6.80
2022-08-14T02:51:30.705Z,6.78
2022-08-14T02:54:04.760Z,7.50
2022-08-14T02:57:15.859Z,7.95
2022-08-14T02:59:15.145Z,8.05
2022-08-14T03:01:51.026Z,9.33
2022-08-14T03:04:23.724Z,8.73
2022-08-14T03:07:07.309Z,10.75
2022-08-14T03:10:24.294Z,11.38
2022-08-14T03:12:08.910Z,9.00
2022-08-14T03:14:44.041Z,9.15
2022-08-14T03:17:18.245Z,8.73
2022-08-14T03:19:53.003Z,9.53
2022-08-14T03:22:27.766Z,8.40
2022-08-14T03:25:05.332Z,8.43
2022-08-14T03:27:48.622Z,7.80
2022-08-14T03:30:16.133Z,6.60
2022-08-14T03:32:50.579Z,8.30
2022-08-14T03:35:24.597Z,7.62
2022-08-14T03:39:13.383Z,7.92
2022-08-14T03:40:47.423Z,5.92
2022-08-14T03:43:20.206Z,5.03
2022-08-14T03:45:54.214Z,6.12
2022-08-14T03:48:31.308Z,6.87
2022-08-14T03:51:02.164Z,7.83
2022-08-14T03:53:38.222Z,5.53
2022-08-14T03:56:15.577Z,5.00
2022-08-14T03:58:53.568Z,4.72
2022-08-14T04:01:29.483Z,4.60
2022-08-14T04:04:03.837Z,5.22
2022-08-14T04:06:44.553Z,4.37
2022-08-14T04:09:14.409Z,4.50
2022-08-14T04:11:49.108Z,4.42
2022-08-14T04:14:24.119Z,4.75
2022-08-14T04:16:58.054Z,5.03
2022-08-14T04:19:33.090Z,4.85
2022-08-14T04:22:06.552Z,4.67
2022-08-14T04:24:40.053Z,4.12
2022-08-14T04:27:16.689Z,4.37
2022-08-14T04:29:49.444Z,4.55
2022-08-14T04:33:01.778Z,3.85
2022-08-14T04:35:00.175Z,4.85
2022-08-14T04:37:53.691Z,4.57
2022-08-14T04:40:43.685Z,4.28
2022-08-14T04:43:38.971Z,4.28
2022-08-14T04:46:56.073Z,4.95
2022-08-14T04:48:59.960Z,4.35
2022-08-14T04:51:30.009Z,4.20
2022-08-14T04:54:04.335Z,4.12
2022-08-14T04:56:37.225Z,4.40
2022-08-14T04:59:11.128Z,4.28
2022-08-14T05:01:48.886Z,4.10
2022-08-14T05:04:22.000Z,4.40
2022-08-14T05:06:56.623Z,3.87
2022-08-14T05:09:31.279Z,3.90
2022-08-14T05:13:13.483Z,4.10
2022-08-14T05:14:46.034Z,4.00
2022-08-14T05:17:14.763Z,4.15
2022-08-14T05:21:55.567Z,6.08
2022-08-14T05:22:22.454Z,4.28
2022-08-14T05:24:55.911Z,4.33
2022-08-14T05:27:31.196Z,4.05
2022-08-14T05:30:07.769Z,4.55
2022-08-14T05:32:42.696Z,3.87
2022-08-14T05:35:18.372Z,3.77
2022-08-14T05:37:51.373Z,4.50
2022-08-14T05:40:24.195Z,4.22
2022-08-14T05:42:57.784Z,3.75
2022-08-14T05:45:31.188Z,4.28
2022-08-14T05:48:09.535Z,4.22
2022-08-14T05:50:42.815Z,3.85
2022-08-14T05:53:15.740Z,4.30
2022-08-14T05:58:33.899Z,4.45
2022-08-14T06:00:59.287Z,4.25
2022-08-14T06:03:32.237Z,4.55
2022-08-14T06:06:05.085Z,4.45
2022-08-14T06:11:14.838Z,5.00
2022-08-14T06:13:47.769Z,4.05
2022-08-14T06:18:53.686Z,3.87
2022-08-14T06:21:28.544Z,3.70
2022-08-14T06:24:02.855Z,4.87
2022-08-14T06:26:36.900Z,4.42
2022-08-14T06:29:11.127Z,4.28
2022-08-14T06:31:45.091Z,4.08
2022-08-14T06:35:04.522Z,4.15
2022-08-14T06:36:56.024Z,4.17
2022-08-14T06:39:37.637Z,3.55
2022-08-14T06:42:05.859Z,3.95
2022-08-14T06:44:38.717Z,4.25
2022-08-14T06:47:11.648Z,4.37
2022-08-14T06:49:56.018Z,4.22
2022-08-14T06:52:20.103Z,4.95
2022-08-14T06:54:55.006Z,4.62
2022-08-14T06:57:31.501Z,5.55
2022-08-14T07:00:05.390Z,5.10
2022-08-14T07:02:57.086Z,3.95
2022-08-14T07:05:58.172Z,4.35
2022-08-14T07:08:31.612Z,4.15
2022-08-14T07:11:04.838Z,5.05
2022-08-14T07:13:38.910Z,5.03
2022-08-14T07:18:46.598Z,4.83
2022-08-14T07:21:21.390Z,4.50
2022-08-14T07:23:54.796Z,4.08
2022-08-14T07:26:29.669Z,4.95
2022-08-14T07:29:02.724Z,4.63
2022-08-14T07:31:37.232Z,5.05
2022-08-14T07:36:58.001Z,5.03
2022-08-14T07:39:19.062Z,5.10
2022-08-14T07:42:08.314Z,5.53
2022-08-14T07:44:46.415Z,4.72
2022-08-14T07:47:21.193Z,5.20
2022-08-14T07:50:18.577Z,5.33
2022-08-14T07:52:51.231Z,4.35
2022-08-14T07:55:24.617Z,5.33
2022-08-14T07:57:59.092Z,5.42
2022-08-14T08:00:33.578Z,4.78
2022-08-14T08:03:13.355Z,4.80
2022-08-14T08:05:48.136Z,4.83
2022-08-14T08:08:26.534Z,4.87
2022-08-14T08:11:02.966Z,5.30
2022-08-14T08:13:38.778Z,4.67
2022-08-14T08:16:11.719Z,4.45
2022-08-14T08:18:44.818Z,5.00
2022-08-14T08:21:18.082Z,5.20
2022-08-14T08:23:51.618Z,5.25
2022-08-14T08:29:01.323Z,5.03
2022-08-14T08:31:35.805Z,5.40
2022-08-14T08:34:14.414Z,5.00
2022-08-14T08:36:46.661Z,4.47
2022-08-14T08:39:22.341Z,4.35
2022-08-14T08:41:54.711Z,4.78
2022-08-14T08:44:34.263Z,4.07
2022-08-14T08:47:08.274Z,4.45
2022-08-14T08:49:59.307Z,4.33
2022-08-14T08:52:25.142Z,4.50
2022-08-14T08:54:57.156Z,5.62
2022-08-14T08:57:33.157Z,4.45
2022-08-14T09:00:25.921Z,5.03
2022-08-14T09:03:13.173Z,4.30
2022-08-14T09:05:56.325Z,5.40
2022-08-14T09:08:32.982Z,4.83
2022-08-14T09:11:18.943Z,4.40
2022-08-14T09:13:48.883Z,4.17
2022-08-14T09:16:25.962Z,4.60
2022-08-14T09:18:59.406Z,5.12
2022-08-14T09:21:32.452Z,6.58
2022-08-14T09:24:28.705Z,4.40
2022-08-14T09:26:42.230Z,4.37
2022-08-14T09:29:16.768Z,5.00
2022-08-14T09:31:57.281Z,4.03
2022-08-14T09:35:12.356Z,4.05
2022-08-14T09:38:31.296Z,3.95
2022-08-14T09:42:21.369Z,4.25
2022-08-14T09:44:22.978Z,4.42
2022-08-14T09:47:00.263Z,3.70
2022-08-14T09:49:39.840Z,4.05
2022-08-14T09:52:23.724Z,3.58
2022-08-14T09:54:51.646Z,3.80
2022-08-14T09:57:31.715Z,3.70
2022-08-14T10:00:30.436Z,3.80
2022-08-14T10:02:58.976Z,3.75
2022-08-14T10:05:38.054Z,3.75
2022-08-14T10:08:26.265Z,4.12
2022-08-14T10:11:02.814Z,5.95
2022-08-14T10:13:52.402Z,4.42
2022-08-14T10:16:06.319Z,4.53
2022-08-14T10:18:40.836Z,4.47
2022-08-14T10:21:18.299Z,4.37
2022-08-14T10:26:43.852Z,3.50
2022-08-14T10:29:23.542Z,3.55
2022-08-14T10:32:01.938Z,4.40
2022-08-14T10:34:41.178Z,3.72
2022-08-14T10:37:17.192Z,4.03
2022-08-14T10:40:10.215Z,4.33
2022-08-14T10:42:44.092Z,4.78
2022-08-14T10:45:23.381Z,4.65
2022-08-14T10:48:07.898Z,4.37
2022-08-14T10:50:34.115Z,3.95
2022-08-14T10:53:09.211Z,4.62
2022-08-14T10:55:45.587Z,4.95
2022-08-14T10:58:17.791Z,4.90
2022-08-14T11:00:59.693Z,4.80
2022-08-14T11:03:56.071Z,4.65
2022-08-14T11:06:20.586Z,4.75
2022-08-14T11:08:55.491Z,4.25
2022-08-14T11:11:35.990Z,4.55
2022-08-14T11:14:04.162Z,5.20
2022-08-14T11:16:40.677Z,4.72
2022-08-14T11:19:14.681Z,4.37
2022-08-14T11:21:49.412Z,4.67
2022-08-14T11:24:53.971Z,4.67
2022-08-14T11:27:01.694Z,4.37
2022-08-14T11:29:37.555Z,3.70
2022-08-14T11:32:13.643Z,3.83
2022-08-14T11:34:47.243Z,4.65
2022-08-14T11:37:36.430Z,4.15
2022-08-14T11:39:56.421Z,4.20
2022-08-14T11:42:58.142Z,4.00
2022-08-14T11:45:11.397Z,3.55
2022-08-14T11:48:13.260Z,3.98
2022-08-14T11:50:34.013Z,3.77
2022-08-14T11:53:02.247Z,3.27
2022-08-14T11:55:40.222Z,3.80
2022-08-14T11:58:15.633Z,4.03
2022-08-14T12:00:58.776Z,3.55
2022-08-14T12:03:51.233Z,3.10
2022-08-14T12:06:29.807Z,3.65
2022-08-14T12:08:59.755Z,3.25
2022-08-14T12:11:44.361Z,3.83
2022-08-14T12:14:29.721Z,5.08
2022-08-14T12:17:12.630Z,3.87
2022-08-14T12:19:56.782Z,3.58
2022-08-14T12:22:52.668Z,3.72
2022-08-14T12:25:25.303Z,3.95
2022-08-14T12:28:01.887Z,3.52
2022-08-14T12:30:43.042Z,3.30
2022-08-14T12:33:34.115Z,3.30
2022-08-14T12:36:20.528Z,3.58
2022-08-14T12:38:49.797Z,2.90
2022-08-14T12:41:28.163Z,3.80
2022-08-14T12:44:04.786Z,3.52
2022-08-14T12:46:43.669Z,4.10
2022-08-14T12:49:20.163Z,3.55
2022-08-14T12:52:00.889Z,3.45
2022-08-14T12:54:33.752Z,4.20
2022-08-14T12:57:19.880Z,3.70
2022-08-14T12:59:50.611Z,3.50
2022-08-14T13:02:27.320Z,3.40
2022-08-14T13:05:00.434Z,3.80
2022-08-14T13:07:34.051Z,3.30
2022-08-14T13:10:47.922Z,4.20
2022-08-14T13:13:11.885Z,6.03
2022-08-14T13:15:21.806Z,4.42
2022-08-14T13:18:00.141Z,3.67
2022-08-14T13:20:33.697Z,3.87
2022-08-14T13:23:08.447Z,3.75
2022-08-14T13:25:42.186Z,4.00
2022-08-14T13:28:29.912Z,4.30
2022-08-14T13:30:51.984Z,3.60
2022-08-14T13:33:26.975Z,3.33
2022-08-14T13:35:59.932Z,3.52
2022-08-14T13:38:33.680Z,3.40
2022-08-14T13:41:07.215Z,3.90
2022-08-14T13:43:59.297Z,3.33
2022-08-14T13:46:15.077Z,3.50
2022-08-14T13:48:51.684Z,3.90
2022-08-14T13:51:27.392Z,4.37
2022-08-14T13:54:11.498Z,4.90
2022-08-14T13:56:42.017Z,4.85
2022-08-14T13:59:20.596Z,8.85
2022-08-14T14:01:51.843Z,5.15
2022-08-14T14:04:26.597Z,4.95
2022-08-14T14:07:03.833Z,4.70
2022-08-14T14:09:51.021Z,4.65
2022-08-14T14:12:37.395Z,4.70
2022-08-14T14:14:54.436Z,4.35
2022-08-14T14:17:28.913Z,4.53
2022-08-14T14:20:03.046Z,4.55
2022-08-14T14:23:02.787Z,4.97
2022-08-14T14:25:19.531Z,11.68
2022-08-14T14:27:53.479Z,7.30
2022-08-14T14:30:52.093Z,16.82
2022-08-14T14:33:06.724Z,10.85
2022-08-14T14:35:39.773Z,7.28
2022-08-14T14:38:18.440Z,14.30
2022-08-14T14:41:00.786Z,15.25
2022-08-14T14:43:29.031Z,15.65
2022-08-14T14:48:35.777Z,8.83
2022-08-14T14:51:08.730Z,7.27
2022-08-14T14:53:45.766Z,12.87
2022-08-14T14:56:50.193Z,7.10
2022-08-14T14:58:53.721Z,7.12
2022-08-14T15:01:27.811Z,7.35
2022-08-14T15:04:07.737Z,7.92
2022-08-14T15:06:38.253Z,8.93
2022-08-14T15:09:17.675Z,9.00
2022-08-14T15:11:47.800Z,10.05
2022-08-14T15:14:54.886Z,9.95
2022-08-14T15:16:59.258Z,7.35
2022-08-14T15:19:32.548Z,7.70
2022-08-14T15:22:06.718Z,7.78
2022-08-14T15:24:41.387Z,5.75
2022-08-14T15:27:14.640Z,5.30
2022-08-14T15:29:49.216Z,4.55
2022-08-14T15:32:23.443Z,4.37
2022-08-14T15:34:56.361Z,4.25
2022-08-14T15:37:32.743Z,3.72
2022-08-14T15:40:05.736Z,3.90
2022-08-14T15:42:40.257Z,3.55
2022-08-14T15:45:14.916Z,3.55
2022-08-14T15:47:51.178Z,3.98
2022-08-14T15:50:25.442Z,3.42
2022-08-14T15:52:59.915Z,6.03
2022-08-14T15:55:33.002Z,3.20
2022-08-14T15:58:11.402Z,3.60
2022-08-14T16:00:59.646Z,3.85
2022-08-14T16:03:35.256Z,3.05
2022-08-14T16:06:17.418Z,3.80
2022-08-14T16:08:58.935Z,5.80
2022-08-14T16:11:27.426Z,5.12
2022-08-14T16:14:02.217Z,3.77
2022-08-14T16:16:51.724Z,3.77
2022-08-14T16:19:12.666Z,3.58
2022-08-14T16:22:01.554Z,3.67
2022-08-14T16:24:28.020Z,4.72
2022-08-14T16:26:55.101Z,3.62
2022-08-14T16:29:35.169Z,4.05
2022-08-14T16:32:33.453Z,3.70
2022-08-14T16:34:48.494Z,4.08
2022-08-14T16:37:19.897Z,3.17
2022-08-14T16:39:54.956Z,3.40
2022-08-14T16:42:39.789Z,3.25
2022-08-14T16:45:10.997Z,3.62
2022-08-14T16:47:44.524Z,3.42
2022-08-14T16:50:43.204Z,5.10
2022-08-14T16:53:00.588Z,4.37
2022-08-14T16:55:30.127Z,4.28
2022-08-14T16:58:05.216Z,4.05
2022-08-14T17:00:44.178Z,4.22
2022-08-14T17:03:16.248Z,4.17
2022-08-14T17:05:49.469Z,6.05
2022-08-14T17:08:33.502Z,4.92
2022-08-14T17:11:04.840Z,3.72
2022-08-14T17:13:58.190Z,3.65
2022-08-14T17:16:25.297Z,4.47
2022-08-14T17:19:00.953Z,3.40
2022-08-14T17:21:38.167Z,3.90
2022-08-14T17:24:58.198Z,3.33
2022-08-14T17:26:55.454Z,3.77
2022-08-14T17:29:31.575Z,3.45
2022-08-14T17:32:27.991Z,2.98
2022-08-14T17:34:57.595Z,3.27
2022-08-14T17:37:44.967Z,3.15
2022-08-14T17:40:26.724Z,3.22
2022-08-14T17:43:02.341Z,3.40
2022-08-14T17:45:43.287Z,4.17
2022-08-14T17:49:10.532Z,3.47
2022-08-14T17:51:09.192Z,4.12
2022-08-14T17:53:52.709Z,3.90
2022-08-14T17:56:19.517Z,3.72
2022-08-14T17:58:52.379Z,3.40
2022-08-14T18:01:25.934Z,3.72
2022-08-14T18:04:05.655Z,3.52
2022-08-14T18:06:58.894Z,4.42
2022-08-14T18:09:25.220Z,3.92
2022-08-14T18:11:48.884Z,3.65
2022-08-14T18:14:31.884Z,3.77
2022-08-14T18:17:00.811Z,4.20
2022-08-14T18:19:38.199Z,4.00
2022-08-14T18:22:31.222Z,3.85
2022-08-14T18:24:48.401Z,5.05
2022-08-14T18:27:24.524Z,5.23
2022-08-14T18:30:00.143Z,5.97
2022-08-14T18:32:54.775Z,4.17
2022-08-14T18:35:45.598Z,3.60
2022-08-14T18:38:46.149Z,3.70
2022-08-14T18:41:05.949Z,3.85
2022-08-14T18:43:58.885Z,3.92
2022-08-14T18:49:16.974Z,4.00
2022-08-14T18:52:10.050Z,4.30
2022-08-14T18:54:48.697Z,4.65
2022-08-14T18:57:20.226Z,4.83
2022-08-14T18:59:53.796Z,4.97
2022-08-14T19:02:35.888Z,5.03
2022-08-14T19:05:10.505Z,4.62
2022-08-14T19:07:48.454Z,4.62
2022-08-14T19:10:37.373Z,4.60
2022-08-14T19:13:11.971Z,4.75
2022-08-14T19:15:56.512Z,4.53
2022-08-14T19:18:38.129Z,4.85
2022-08-14T19:21:13.140Z,5.50
2022-08-14T19:23:59.521Z,5.35
2022-08-14T19:26:35.637Z,5.55
2022-08-14T19:29:37.955Z,5.33
2022-08-14T19:32:36.537Z,5.95
2022-08-14T19:35:48.542Z,5.80
2022-08-14T19:38:00.436Z,5.95
2022-08-14T19:40:42.884Z,6.00
2022-08-14T19:43:55.729Z,5.85
2022-08-14T19:46:03.523Z,5.53
2022-08-14T19:48:41.882Z,5.42
2022-08-14T19:51:16.398Z,5.58
2022-08-14T19:53:56.545Z,5.62
2022-08-14T19:56:29.474Z,5.83
2022-08-14T19:59:02.658Z,5.87
2022-08-14T20:01:39.395Z,5.40
2022-08-14T20:04:44.850Z,5.37
2022-08-14T20:06:49.041Z,4.40
2022-08-14T20:11:09.594Z,5.87
2022-08-14T20:12:02.572Z,4.42
2022-08-14T20:14:31.975Z,4.15
2022-08-14T20:17:08.371Z,4.25
2022-08-14T20:19:42.570Z,4.55
2022-08-14T20:22:37.017Z,4.60
2022-08-14T20:24:54.419Z,4.78
2022-08-14T20:27:44.136Z,5.50
2022-08-14T20:30:33.905Z,4.40
2022-08-14T20:33:01.876Z,4.60
2022-08-14T20:35:47.557Z,5.10
2022-08-14T20:41:07.592Z,4.53
2022-08-14T20:44:02.700Z,5.00
2022-08-14T20:46:42.170Z,5.17
2022-08-14T20:49:18.887Z,4.95
2022-08-14T20:51:59.464Z,4.83
2022-08-14T20:54:34.291Z,4.87
2022-08-14T20:57:12.029Z,4.87
2022-08-14T20:59:51.208Z,5.25
2022-08-14T21:02:50.135Z,5.60
2022-08-14T21:05:16.128Z,5.05
2022-08-14T21:07:50.771Z,5.12
2022-08-14T21:10:35.791Z,5.83
2022-08-14T21:14:09.285Z,5.65
2022-08-14T21:15:57.503Z,6.28
2022-08-14T21:18:22.792Z,5.60
2022-08-14T21:20:56.530Z,5.60
2022-08-14T21:23:32.591Z,5.80
2022-08-14T21:26:06.149Z,5.67
2022-08-14T21:28:39.673Z,5.45
2022-08-14T21:31:12.815Z,5.78
2022-08-14T21:33:47.286Z,5.58
2022-08-14T21:36:22.266Z,5.67
2022-08-14T21:38:55.239Z,5.58
2022-08-14T21:41:43.189Z,6.00
2022-08-14T21:44:17.551Z,5.78
2022-08-14T21:46:53.498Z,6.62
2022-08-14T21:49:34.088Z,5.78
2022-08-14T21:52:49.294Z,5.47
2022-08-14T21:54:49.504Z,6.33
2022-08-14T21:57:56.068Z,6.33
2022-08-14T22:00:30.412Z,6.33
2022-08-14T22:02:38.671Z,5.40
2022-08-14T22:05:13.789Z,5.30
2022-08-14T22:07:49.406Z,5.60
2022-08-14T22:10:24.400Z,5.00
2022-08-14T22:13:01.189Z,4.97
2022-08-14T22:15:33.607Z,5.10
2022-08-14T22:18:08.489Z,4.83
2022-08-14T22:20:42.973Z,5.03
2022-08-14T22:23:17.806Z,5.33
2022-08-14T22:25:52.316Z,5.83
2022-08-14T22:28:32.669Z,5.08
2022-08-14T22:31:10.639Z,5.35
2022-08-14T22:33:43.212Z,5.17
2022-08-14T22:36:42.294Z,4.65
2022-08-14T22:41:55.846Z,5.28
2022-08-14T22:44:24.203Z,5.40
2022-08-14T22:46:59.801Z,4.42
2022-08-14T22:50:31.239Z,5.00
2022-08-14T22:52:33.309Z,4.85
2022-08-14T22:54:52.257Z,4.97
2022-08-14T22:57:22.544Z,5.62
2022-08-14T22:59:55.593Z,5.30
2022-08-14T23:02:32.516Z,5.97
2022-08-14T23:05:06.325Z,5.67
2022-08-14T23:08:57.600Z,6.95
2022-08-14T23:10:31.824Z,6.67
2022-08-14T23:12:54.664Z,5.87
2022-08-14T23:15:30.196Z,6.92
2022-08-14T23:18:03.731Z,6.72
2022-08-14T23:20:40.423Z,7.15
2022-08-14T23:23:22.556Z,6.35
2022-08-14T23:25:59.840Z,6.67
2022-08-14T23:28:33.659Z,6.60
2022-08-14T23:31:05.936Z,6.28
2022-08-14T23:33:45.917Z,6.10
2022-08-14T23:36:32.314Z,6.53
2022-08-14T23:38:50.806Z,6.25
2022-08-14T23:41:25.225Z,6.37
2022-08-14T23:43:58.581Z,6.83
2022-08-14T23:46:34.969Z,6.20
2022-08-14T23:49:07.451Z,6.53
2022-08-14T23:51:41.868Z,6.55
2022-08-14T23:54:49.116Z,6.50
2022-08-14T23:56:49.895Z,6.60
2022-08-14T23:59:24.354Z,6.95
